Allamuchy Township, New Jersey
Current Conditions -  °F | °C
As of 11:53 PM on Monday 20 Oct 2014 (Local Time) from KSMQ Reporting Station
Few Clouds Few Clouds  
Wind Chill: 46°   Ceiling: Unl
Heat Index: 46°   Visibility: 10mi
Dew Point: 41°   Wind: 0mph
Humidity: 83%   Direction: NA
Pressure: 29.95"   Gusts: NA
Location:  40.8661°N, 74.8361°W
Report Text: KSMQ 210353Z AUTO 00000KT 10SM FEW120 08/05 A2995 RMK AO2 SLP142 T00780050
Loading
Personal Weather Stations






























Interactive Weather Map
Tropical Storm Tracking
New forecast layout! Learn more

10-Day Weather Forecast

Advertisements
Track Severe Weather on mobile